University Park, PA (16802)

12:42 PM EDT on August 18, 2017 (GMT -0400)
College Heights | | Change Station

Elev 1219 ft 40.80 °N, 77.87 °W | Updated 30 seconds ago

Overcast
Overcast
74.1 °F
Feels Like 71 °F
N
1.0
Wind Variable Wind from WSW
Gusts 2.0 mph

Today
High -- | Low -- °F
--% Chance of Precip.
Yesterday
High -- | Low -- °F
Precip. -- in
Pressure 29.86 in
Visibility 5.0 miles
Clouds Scattered Clouds 700 ft
Mostly Cloudy 2300 ft
Overcast 7500 ft
Heat Index 71 °F
Dew Point 73 °F
Humidity 95%
Rainfall 0.36 in
Snow Depth Not available.
6:24 AM 8:04 PM
Waning Crescent, 13% visible
SPECI KUNV 181615Z 21005KT 5SM -RA SCT007 BKN023 OVC075 23/22 A2986
Pressure 29.86 in
Visibility 5.0 miles
Clouds Scattered Clouds 700 ft
Mostly Cloudy 2300 ft
Overcast 7500 ft
Heat Index 71 °F
Dew Point 73 °F
Humidity 95%
Rainfall 0.36 in
Snow Depth Not available.
6:24 AM 8:04 PM
Waning Crescent, 13% visible
SPECI KUNV 181615Z 21005KT 5SM -RA SCT007 BKN023 OVC075 23/22 A2986

Get Severe Weather Alerts

Thanks for signing up!

Be on the lookout for a verification email in your inbox.

You'll start receiving the daily forecast at 6 AM.

×

10-Day Weather Forecast

Almanac

Astronomy

Aug. 18, 2017 Rise Set
Actual Time
Civil Twilight
Nautical Twilight
Astronomical Twilight
Moon
Length of Visible Light
Length of Day
Tomorrow will be .
, % of the Moon is Illuminated

Today's Extremes

State Highs State Lows

Community

WunderPhotos

Category 6

Welcome to Category 6. This is the collective home for Weather Underground's featured writeups by Dr. Jeff Masters (right), Bob Henson (left), Chris Burt, and other regular contributors.

Nearby

Air Quality

  Air Quality AQ Index Pollutant
Not available.

Snow Depth

Station Depth Elevation

Earthquake Activity

City Distance Mag. Time & Date
Minimum magnitude displayed is 2.5.

Coastal Water Temperatures

Place Temperature

Stations

Nearby Weather Stations

Station Location Temp. Windchill Dew Point Humidity Wind Precip. Elev Updated Type
                   

Watches & Warnings

There are currently no watches in effect.